Аэропорт: Платов. Ростов-на-Дону

ICAO: URRP

METAR:
2020-08-09 23:30:00
URRP 092330Z 30002MPS CAVOK 16/10 Q1011 R05/CLRD70 NOSIG RMK QFE753/1005
METAR:
2020-08-09 22:55:00
TAF URRP 092255Z 1000/1024 04003G10MPS 9999 SCT030 TX31/1012Z TN18/1003Z TEMPO 1006/1015 06008G13MPS